Time;durP1;ratioP1;P1;durP2;ratioP2;P2;SDS_P1;SDS_P2;PMS_P1;PMS_P2;Temp;Humidity;BMP_temperature;BMP_pressure;BME280_temperature;BME280_humidity;BME280_pressure;Samples;Min_cycle;Max_cycle;Signal;HPM_P1;HPM_P2
2021/11/13 00:01:17;;;;;;;4.00;3.60;;;;;;;4.44;86.56;102268.59;6337360;28;20185;-73
2021/11/13 00:04:21;;;;;;;4.63;3.70;;;;;;;4.44;86.74;102252.38;6337737;28;20184;-73
2021/11/13 00:07:25;;;;;;;4.70;3.47;;;;;;;4.38;87.00;102250.25;6337184;28;20667;-74
2021/11/13 00:10:31;;;;;;;7.60;3.63;;;;;;;4.36;86.98;102254.94;6336925;28;20405;-74
2021/11/13 00:13:36;;;;;;;5.10;3.10;;;;;;;4.34;87.14;102243.41;6338081;28;20305;-74
2021/11/13 00:16:40;;;;;;;4.77;3.23;;;;;;;4.42;86.69;102255.22;6336762;28;20482;-74
2021/11/13 00:19:45;;;;;;;5.37;3.70;;;;;;;4.25;87.90;102236.16;6336805;28;20219;-74
2021/11/13 00:22:50;;;;;;;3.57;3.20;;;;;;;4.26;88.63;102243.28;6337962;28;20193;-74
2021/11/13 00:25:56;;;;;;;7.73;3.17;;;;;;;4.25;88.03;102237.03;6337543;28;20199;-74
2021/11/13 00:29:02;;;;;;;8.57;3.37;;;;;;;4.23;88.22;102240.88;6337123;28;20212;-74
2021/11/13 00:32:07;;;;;;;7.53;3.77;;;;;;;4.26;87.99;102233.31;6337558;28;20226;-74
2021/11/13 00:35:14;;;;;;;9.07;3.30;;;;;;;4.19;88.01;102236.72;6337150;28;20228;-74
2021/11/13 00:38:20;;;;;;;4.00;3.07;;;;;;;4.27;87.17;102239.56;6337528;28;20190;-74
2021/11/13 00:41:26;;;;;;;4.90;3.10;;;;;;;4.20;86.89;102241.13;6337452;28;20185;-73
2021/11/13 00:44:34;;;;;;;3.33;3.20;;;;;;;4.21;87.55;102240.16;6336770;28;20192;-74
2021/11/13 00:47:40;;;;;;;5.60;3.10;;;;;;;4.19;87.50;102236.72;6337989;28;20319;-74
2021/11/13 00:50:44;;;;;;;3.13;2.70;;;;;;;4.20;87.80;102238.44;6336321;28;20471;-74
2021/11/13 00:53:48;;;;;;;3.00;2.70;;;;;;;4.20;86.55;102228.50;6336209;28;20467;-73
2021/11/13 00:56:54;;;;;;;2.33;2.13;;;;;;;4.24;86.45;102240.69;6337638;28;20291;-74
2021/11/13 00:59:58;;;;;;;3.00;2.80;;;;;;;4.33;85.97;102239.00;6337507;28;20194;-74
2021/11/13 01:03:02;;;;;;;3.23;2.90;;;;;;;4.23;86.69;102247.13;6336698;28;20184;-74
2021/11/13 01:06:06;;;;;;;2.30;2.30;;;;;;;4.20;86.11;102238.44;6337081;28;20185;-74
2021/11/13 01:09:10;;;;;;;2.83;2.63;;;;;;;4.13;86.43;102242.72;6337249;28;20288;-74
2021/11/13 01:12:16;;;;;;;3.03;2.50;;;;;;;4.20;86.78;102243.84;6335981;28;20184;-74
2021/11/13 01:15:22;;;;;;;3.50;2.90;;;;;;;4.22;86.08;102249.94;6337556;28;20187;-74
2021/11/13 01:18:27;;;;;;;2.87;2.63;;;;;;;4.27;85.72;102250.38;6336989;28;20233;-74
2021/11/13 01:21:31;;;;;;;3.73;2.60;;;;;;;4.28;86.09;102257.50;6337335;28;20191;-74
2021/11/13 01:24:37;;;;;;;5.07;2.83;;;;;;;4.24;86.33;102256.06;6337013;28;20237;-74
2021/11/13 01:27:43;;;;;;;2.87;2.67;;;;;;;4.29;86.21;102264.59;6335753;28;20432;-74
2021/11/13 01:30:47;;;;;;;3.13;2.93;;;;;;;4.16;87.17;102253.25;6336881;28;20185;-74
2021/11/13 01:33:56;;;;;;;3.20;2.90;;;;;;;4.21;87.41;102250.97;6337142;28;20216;-74
2021/11/13 01:37:00;;;;;;;2.83;2.70;;;;;;;4.15;87.51;102251.50;6336212;28;20276;-74
2021/11/13 01:40:07;;;;;;;4.53;2.90;;;;;;;4.22;88.00;102266.16;6339541;28;20188;-74
2021/11/13 01:43:13;;;;;;;4.23;3.23;;;;;;;4.15;87.88;102262.31;6342002;28;20200;-74
2021/11/13 01:46:19;;;;;;;2.93;2.70;;;;;;;4.23;87.90;102254.38;6341339;28;20191;-74
2021/11/13 01:49:23;;;;;;;4.57;3.10;;;;;;;4.22;88.05;102252.66;6340108;28;20401;-74
2021/11/13 01:52:28;;;;;;;3.00;2.80;;;;;;;4.24;87.77;102261.47;6340089;28;20210;-74
2021/11/13 01:55:35;;;;;;;6.37;3.13;;;;;;;4.24;87.56;102258.75;6340474;28;20191;-74
2021/11/13 01:58:41;;;;;;;4.03;2.73;;;;;;;4.32;86.78;102264.31;6339913;28;20231;-74
2021/11/13 02:01:48;;;;;;;4.93;3.20;;;;;;;4.25;87.91;102268.59;6341278;28;20252;-74
2021/11/13 02:04:52;;;;;;;3.40;3.20;;;;;;;4.27;87.67;102266.59;6339790;28;20361;-74
2021/11/13 02:07:56;;;;;;;3.50;3.17;;;;;;;4.18;88.52;102278.25;6339656;28;20482;-74
2021/11/13 02:11:01;;;;;;;3.50;3.20;;;;;;;4.22;89.15;102274.25;6339746;28;20185;-75
2021/11/13 02:14:07;;;;;;;3.33;3.03;;;;;;;4.20;88.47;102276.25;6340569;28;20191;-74
2021/11/13 02:17:12;;;;;;;3.47;3.23;;;;;;;4.22;89.52;102274.25;6339599;28;20593;-74
2021/11/13 02:20:29;;;;;;;3.43;3.23;;;;;;;4.24;88.94;102261.47;6340208;28;20190;-74
2021/11/13 02:23:34;;;;;;;4.43;2.87;;;;;;;4.23;88.47;102265.19;6340434;28;20185;-74
2021/11/13 02:26:39;;;;;;;3.57;3.17;;;;;;;4.32;87.99;102265.16;6339654;28;20274;-74
2021/11/13 02:29:43;;;;;;;3.13;2.80;;;;;;;4.23;88.86;102259.78;6339174;28;20387;-74
2021/11/13 02:32:52;;;;;;;5.27;2.90;;;;;;;4.22;89.37;102253.50;6340442;28;20189;-73
2021/11/13 02:35:59;;;;;;;4.90;2.63;;;;;;;4.36;88.71;102254.94;6339587;28;20408;-74
2021/11/13 02:39:06;;;;;;;3.00;2.70;;;;;;;4.32;88.01;102248.97;6338953;28;20307;-74
2021/11/13 02:42:11;;;;;;;3.37;3.10;;;;;;;4.34;87.27;102262.31;6339405;28;20191;-74
2021/11/13 02:45:17;;;;;;;2.77;2.57;;;;;;;4.32;87.58;102245.41;6339555;28;20184;-73
2021/11/13 02:48:23;;;;;;;3.70;2.73;;;;;;;4.29;87.04;102248.38;6338616;28;20499;-74
2021/11/13 02:51:29;;;;;;;2.53;2.43;;;;;;;4.37;87.17;102260.19;6339673;28;20189;-74
2021/11/13 02:54:33;;;;;;;2.87;2.77;;;;;;;4.43;86.96;102256.06;6339169;28;20293;-74
2021/11/13 02:57:39;;;;;;;5.67;2.60;;;;;;;4.48;86.88;102253.78;6338564;28;20356;-74
2021/11/13 03:00:44;;;;;;;3.23;2.97;;;;;;;4.50;86.85;102259.91;6338540;28;20495;-74
2021/11/13 03:03:50;;;;;;;4.80;2.63;;;;;;;4.43;86.53;102261.47;6339036;28;20184;-74
2021/11/13 03:06:58;;;;;;;2.77;2.50;;;;;;;4.40;87.55;102261.75;6339401;28;20192;-74
2021/11/13 03:10:03;;;;;;;3.00;2.80;;;;;;;4.47;87.61;102260.19;6338917;28;20244;-74
2021/11/13 03:13:07;;;;;;;2.80;2.60;;;;;;;4.35;87.49;102251.38;6338159;28;20404;-73
2021/11/13 03:16:14;;;;;;;3.47;2.60;;;;;;;4.47;87.93;102262.88;6338534;28;20199;-74
2021/11/13 03:19:18;;;;;;;7.63;2.80;;;;;;;4.63;86.07;102254.19;6338097;28;20517;-74
2021/11/13 03:22:24;;;;;;;2.53;2.30;;;;;;;4.64;85.65;102248.66;6339290;28;20185;-74
2021/11/13 03:25:33;;;;;;;2.77;2.70;;;;;;;4.53;87.05;102251.50;6337934;28;20225;-74
2021/11/13 03:28:39;;;;;;;8.07;2.67;;;;;;;4.64;86.21;102254.06;6339173;28;20183;-74
2021/11/13 03:31:44;;;;;;;2.40;2.30;;;;;;;4.66;86.60;102254.78;6338138;28;20184;-74
2021/11/13 03:34:48;;;;;;;2.90;2.80;;;;;;;4.57;86.91;102258.31;6338620;28;20193;-74
2021/11/13 03:37:56;;;;;;;2.83;2.63;;;;;;;4.63;87.28;102252.34;6339050;28;20232;-74
2021/11/13 03:41:00;;;;;;;2.70;2.30;;;;;;;4.62;86.78;102256.06;6337934;28;20190;-74
2021/11/13 03:44:05;;;;;;;2.40;2.30;;;;;;;4.59;87.32;102250.94;6338440;28;20192;-74
2021/11/13 03:47:10;;;;;;;2.57;2.47;;;;;;;4.64;87.31;102254.06;6338367;28;20186;-74
2021/11/13 03:50:14;;;;;;;2.77;2.60;;;;;;;4.59;87.51;102259.06;6337356;28;20378;-74
2021/11/13 03:53:20;;;;;;;2.30;2.30;;;;;;;4.63;87.86;102256.91;6338241;28;20310;-74
2021/11/13 03:56:24;;;;;;;2.70;2.40;;;;;;;4.70;87.44;102274.28;6339436;28;20261;-74
2021/11/13 03:59:29;;;;;;;2.37;2.37;;;;;;;4.57;88.88;102269.13;6337161;28;20495;-74
2021/11/13 04:02:33;;;;;;;2.90;2.50;;;;;;;4.59;88.51;102267.16;6337545;28;20185;-74
2021/11/13 04:05:37;;;;;;;2.93;2.40;;;;;;;4.63;89.09;102275.81;6337907;28;20228;-74
2021/11/13 04:08:42;;;;;;;2.40;2.30;;;;;;;4.64;88.46;102273.00;6337947;28;20249;-74
2021/11/13 04:11:47;;;;;;;2.70;2.40;;;;;;;4.61;88.94;102281.38;6338189;28;20245;-74
2021/11/13 04:14:51;;;;;;;2.73;2.53;;;;;;;4.61;89.38;102275.97;6337163;28;20247;-74
2021/11/13 04:17:55;;;;;;;3.37;2.60;;;;;;;4.62;89.97;102277.69;6337825;28;20185;-74
2021/11/13 04:20:59;;;;;;;2.83;2.60;;;;;;;4.66;89.43;102278.25;6338111;28;20201;-74
2021/11/13 04:24:06;;;;;;;6.03;2.80;;;;;;;4.61;89.60;102284.09;6336959;28;20252;-74
2021/11/13 04:27:10;;;;;;;2.43;2.33;;;;;;;4.56;90.02;102278.25;6336634;28;20195;-74
2021/11/13 04:30:16;;;;;;;3.13;2.43;;;;;;;4.56;90.49;102278.25;6337817;28;20219;-74
2021/11/13 04:33:21;;;;;;;4.03;2.40;;;;;;;4.67;90.27;102270.00;6336461;28;20223;-75
2021/11/13 04:36:27;;;;;;;3.17;2.27;;;;;;;4.59;90.12;102277.97;6336884;28;20237;-74
2021/11/13 04:39:32;;;;;;;2.40;2.30;;;;;;;4.62;90.04;102275.00;6337655;28;20252;-75
2021/11/13 04:42:37;;;;;;;2.50;2.30;;;;;;;4.55;90.52;102265.72;6336468;28;20238;-74
2021/11/13 04:45:41;;;;;;;4.00;2.20;;;;;;;4.56;90.60;102267.44;6337734;28;20185;-74
2021/11/13 04:48:46;;;;;;;4.50;2.37;;;;;;;4.55;90.77;102265.72;6337667;28;20248;-74
2021/11/13 04:51:50;;;;;;;2.27;2.20;;;;;;;4.52;91.18;102274.13;6337591;28;20212;-74
2021/11/13 04:54:56;;;;;;;2.63;2.30;;;;;;;4.54;91.25;102271.28;6337246;28;20252;-75
2021/11/13 04:58:00;;;;;;;3.50;2.10;;;;;;;4.49;91.43;102271.72;6337367;28;20262;-74
2021/11/13 05:01:05;;;;;;;2.10;1.93;;;;;;;4.56;91.72;102278.25;6336198;28;20369;-74
2021/11/13 05:04:10;;;;;;;2.37;2.27;;;;;;;4.57;92.26;102284.53;6337483;28;20185;-75
2021/11/13 05:07:14;;;;;;;2.97;2.23;;;;;;;4.56;92.78;102291.78;6337207;28;20184;-74
2021/11/13 05:10:20;;;;;;;2.40;2.30;;;;;;;4.63;91.87;102292.91;6337084;28;20213;-74
2021/11/13 05:13:24;;;;;;;2.60;2.00;;;;;;;4.64;91.57;102291.91;6338531;28;20184;-75
2021/11/13 05:16:28;;;;;;;2.17;2.10;;;;;;;4.65;91.46;102299.00;6342408;28;20185;-74
2021/11/13 05:19:32;;;;;;;2.40;2.20;;;;;;;4.73;91.64;102296.44;6341266;28;20193;-74
2021/11/13 05:22:37;;;;;;;2.27;1.70;;;;;;;4.78;92.20;102296.88;6342020;28;20252;-74
2021/11/13 05:25:43;;;;;;;2.57;2.03;;;;;;;4.89;91.14;102301.25;6341396;28;20189;-74
2021/11/13 05:28:48;;;;;;;2.10;2.10;;;;;;;4.82;90.54;102301.00;6342181;28;20185;-74
2021/11/13 05:31:52;;;;;;;2.30;2.20;;;;;;;4.78;90.63;102296.88;6340630;28;20564;-73
2021/11/13 05:34:57;;;;;;;2.23;2.23;;;;;;;4.70;91.88;102302.13;6341534;28;20200;-74
2021/11/13 05:38:03;;;;;;;2.20;2.10;;;;;;;4.71;92.00;102305.69;6340636;28;20535;-73
2021/11/13 05:41:09;;;;;;;3.77;2.40;;;;;;;4.76;91.58;102296.16;6341828;28;20190;-73
2021/11/13 05:44:14;;;;;;;2.03;1.93;;;;;;;4.81;91.24;102299.28;6340219;28;20474;-73
2021/11/13 05:47:18;;;;;;;2.07;2.07;;;;;;;4.75;91.05;102316.06;6340221;28;20373;-74
2021/11/13 05:50:22;;;;;;;2.33;2.33;;;;;;;4.72;92.38;102310.97;6340014;28;20475;-74
2021/11/13 05:53:27;;;;;;;3.43;2.00;;;;;;;4.83;91.82;102318.91;6341140;28;20184;-74
2021/11/13 05:56:33;;;;;;;1.90;1.90;;;;;;;4.80;91.27;102319.19;6341175;28;20239;-74
2021/11/13 05:59:37;;;;;;;6.47;2.00;;;;;;;4.85;91.36;102326.91;6340909;28;20253;-73
2021/11/13 06:02:42;;;;;;;1.90;1.80;;;;;;;4.85;90.88;102338.56;6341286;28;20236;-74
2021/11/13 06:05:46;;;;;;;2.43;2.07;;;;;;;4.81;91.41;102336.28;6340622;28;20184;-74
2021/11/13 06:08:50;;;;;;;1.80;1.80;;;;;;;4.85;91.10;102343.97;6340750;28;20204;-73
2021/11/13 06:11:56;;;;;;;2.60;1.90;;;;;;;4.84;91.77;102334.16;6340006;28;20276;-74
2021/11/13 06:15:00;;;;;;;1.70;1.70;;;;;;;4.72;92.05;102346.13;6341030;28;20186;-74
2021/11/13 06:18:04;;;;;;;1.43;1.43;;;;;;;4.70;93.21;102356.22;6340545;28;20186;-74
2021/11/13 06:21:10;;;;;;;2.60;1.60;;;;;;;4.80;92.87;102348.94;6339522;28;20480;-74
2021/11/13 06:24:14;;;;;;;1.50;1.50;;;;;;;4.80;93.16;102351.66;6339285;28;20499;-74
2021/11/13 06:27:20;;;;;;;2.53;1.80;;;;;;;4.77;92.97;102346.56;6339098;28;20186;-74
2021/11/13 06:30:28;;;;;;;1.70;1.60;;;;;;;4.80;93.49;102357.06;6340243;28;20192;-74
2021/11/13 06:33:32;;;;;;;1.90;1.70;;;;;;;4.83;91.62;102356.78;6339177;28;20191;-74
2021/11/13 06:36:36;;;;;;;2.10;2.00;;;;;;;4.89;92.09;102356.22;6339642;28;20233;-74
2021/11/13 06:39:41;;;;;;;1.63;1.63;;;;;;;4.88;93.03;102365.31;6339411;28;20244;-74
2021/11/13 06:42:46;;;;;;;1.80;1.77;;;;;;;4.90;92.69;102357.94;6339330;28;20196;-75
2021/11/13 06:45:50;;;;;;;1.63;1.60;;;;;;;4.92;92.25;102355.94;6339399;28;20189;-75
2021/11/13 06:48:56;;;;;;;2.20;1.90;;;;;;;4.92;92.73;102353.22;6339160;28;20186;-75
2021/11/13 06:52:01;;;;;;;3.20;1.60;;;;;;;4.90;93.01;102360.66;6340347;28;20239;-75
2021/11/13 06:55:06;;;;;;;2.00;1.87;;;;;;;4.94;92.83;102359.34;6338777;28;20477;-74
2021/11/13 06:58:17;;;;;;;1.73;1.63;;;;;;;4.98;92.73;102359.94;6338653;28;20209;-75
2021/11/13 07:01:21;;;;;;;1.90;1.80;;;;;;;5.04;92.96;102360.19;6338522;28;20496;-74
2021/11/13 07:04:26;;;;;;;1.70;1.70;;;;;;;4.91;93.87;102354.22;6339564;28;20185;-74
2021/11/13 07:07:32;;;;;;;1.90;1.80;;;;;;;5.01;93.24;102374.00;6339664;28;20220;-74
2021/11/13 07:10:36;;;;;;;1.90;1.80;;;;;;;5.11;92.35;102365.03;6339809;28;20193;-74
2021/11/13 07:13:42;;;;;;;1.80;1.70;;;;;;;5.10;92.50;102374.13;6339076;28;20218;-74
2021/11/13 07:16:46;;;;;;;1.80;1.80;;;;;;;5.02;93.82;102378.41;6339144;28;20186;-73
2021/11/13 07:19:51;;;;;;;1.83;1.73;;;;;;;5.06;94.13;102384.38;6338958;28;20244;-74
2021/11/13 07:22:56;;;;;;;1.80;1.70;;;;;;;5.07;94.31;102386.09;6337998;28;20479;-74
2021/11/13 07:26:01;;;;;;;2.10;2.00;;;;;;;5.18;93.52;102393.22;6338876;28;20186;-74
2021/11/13 07:29:12;;;;;;;1.83;1.73;;;;;;;5.18;93.87;102398.63;6337642;28;20500;-74
2021/11/13 07:32:17;;;;;;;1.50;1.50;;;;;;;5.15;94.76;102388.09;6339009;28;20222;-74
2021/11/13 07:35:21;;;;;;;2.03;1.83;;;;;;;5.07;95.20;102381.53;6338550;28;20280;-74
2021/11/13 07:38:26;;;;;;;3.73;1.57;;;;;;;5.11;95.41;102387.50;6337887;28;20184;-74
2021/11/13 07:41:30;;;;;;;2.17;1.40;;;;;;;5.20;94.50;102385.78;6338767;28;20186;-74
2021/11/13 07:44:40;;;;;;;1.50;1.50;;;;;;;5.20;94.89;102383.09;6337471;28;20271;-74
2021/11/13 07:47:45;;;;;;;1.67;1.67;;;;;;;5.32;94.07;102385.50;6338528;28;20231;-75
2021/11/13 07:50:49;;;;;;;1.50;1.50;;;;;;;5.31;94.20;102393.75;6337232;28;20437;-75
2021/11/13 07:53:53;;;;;;;2.20;1.57;;;;;;;5.39;94.06;102396.59;6338288;28;20251;-75
2021/11/13 07:56:57;;;;;;;1.50;1.50;;;;;;;5.42;94.09;102397.16;6338382;28;20217;-74
2021/11/13 08:00:04;;;;;;;1.70;1.43;;;;;;;5.45;94.01;102401.41;6337016;28;20414;-74
2021/11/13 08:03:17;;;;;;;2.37;1.60;;;;;;;5.44;94.28;102395.16;6338301;28;20311;-74
2021/11/13 08:06:22;;;;;;;1.63;1.63;;;;;;;5.52;94.83;102402.56;6337527;28;20189;-74
2021/11/13 08:09:26;;;;;;;1.50;1.50;;;;;;;5.56;94.33;102387.72;6337178;28;20244;-74
2021/11/13 08:12:30;;;;;;;1.73;1.73;;;;;;;5.61;94.10;102396.25;6338212;28;20210;-74
2021/11/13 08:15:36;;;;;;;1.37;1.37;;;;;;;5.56;94.73;102399.41;6338000;28;20263;-74
2021/11/13 08:18:41;;;;;;;1.47;1.47;;;;;;;5.66;94.60;102391.25;6338016;28;20193;-74
2021/11/13 08:21:45;;;;;;;2.00;1.90;;;;;;;5.70;94.32;102395.34;6336687;28;20186;-74
2021/11/13 08:24:49;;;;;;;2.67;1.80;;;;;;;5.76;94.02;102394.78;6336616;28;20265;-74
2021/11/13 08:27:54;;;;;;;1.70;1.60;;;;;;;5.77;94.03;102404.63;6337908;28;20192;-74
2021/11/13 08:31:00;;;;;;;1.70;1.50;;;;;;;5.80;93.78;102404.31;6338139;28;20269;-74
2021/11/13 08:34:06;;;;;;;2.07;1.57;;;;;;;5.86;93.78;102406.44;6336391;28;20216;-74
2021/11/13 08:37:11;;;;;;;1.37;1.37;;;;;;;5.76;94.45;102408.31;6336264;28;20264;-74
2021/11/13 08:40:17;;;;;;;1.70;1.50;;;;;;;5.89;94.05;102417.00;6337463;28;20183;-74
2021/11/13 08:43:22;;;;;;;1.70;1.70;;;;;;;5.95;94.12;102415.56;6337519;28;20201;-76
2021/11/13 08:46:29;;;;;;;1.60;1.50;;;;;;;6.00;93.99;102411.41;6336487;28;20193;-74
2021/11/13 08:49:33;;;;;;;1.53;1.53;;;;;;;6.02;93.57;102406.69;6335993;28;20543;-74
2021/11/13 08:52:40;;;;;;;1.73;1.73;;;;;;;6.03;94.06;102419.25;6337413;28;20221;-74
2021/11/13 08:55:44;;;;;;;2.17;1.60;;;;;;;6.05;93.92;102411.81;6335958;28;20558;-74
2021/11/13 08:58:49;;;;;;;1.70;1.70;;;;;;;6.02;94.64;102403.97;6335984;28;20200;-74
2021/11/13 09:01:55;;;;;;;2.00;1.83;;;;;;;5.99;94.96;102403.41;6336879;28;20186;-74
2021/11/13 09:05:00;;;;;;;1.60;1.47;;;;;;;6.11;94.52;102413.91;6337114;28;20222;-74
2021/11/13 09:08:07;;;;;;;1.87;1.77;;;;;;;6.14;93.55;102416.31;6337253;28;20233;-75
2021/11/13 09:11:14;;;;;;;5.10;1.67;;;;;;;6.13;94.17;102413.75;6336395;28;20190;-74
2021/11/13 09:14:19;;;;;;;1.40;1.40;;;;;;;6.12;94.70;102412.03;6335792;28;20214;-75
2021/11/13 09:17:25;;;;;;;1.77;1.67;;;;;;;6.14;94.45;102421.72;6337240;28;20182;-75
2021/11/13 09:20:30;;;;;;;1.67;1.67;;;;;;;6.11;95.11;102426.63;6336574;28;20315;-75
2021/11/13 09:23:35;;;;;;;1.50;1.50;;;;;;;6.12;95.45;102429.16;6337064;28;20190;-75
2021/11/13 09:26:39;;;;;;;2.07;1.80;;;;;;;6.22;94.68;102440.81;6336282;28;20255;-76
2021/11/13 09:29:44;;;;;;;2.10;2.00;;;;;;;6.45;93.23;102440.41;6335776;28;24405;-75
2021/11/13 09:32:49;;;;;;;2.20;1.80;;;;;;;6.29;94.35;102436.50;6335665;28;20572;-75
2021/11/13 09:35:54;;;;;;;1.70;1.70;;;;;;;6.41;94.29;102434.44;6336795;28;20243;-75
2021/11/13 09:38:59;;;;;;;1.70;1.60;;;;;;;6.41;94.59;102449.84;6336774;28;20228;-75
2021/11/13 09:42:04;;;;;;;3.63;1.70;;;;;;;6.50;94.45;102443.50;6335996;28;20183;-75
2021/11/13 09:45:10;;;;;;;9.77;1.80;;;;;;;6.48;94.71;102443.66;6335028;28;20187;-75
2021/11/13 09:48:16;;;;;;;2.97;1.43;;;;;;;6.56;94.88;102437.50;6336268;28;20262;-75
2021/11/13 09:51:23;;;;;;;1.60;1.60;;;;;;;6.67;94.31;102442.72;6335705;28;20183;-74
2021/11/13 09:54:28;;;;;;;3.67;1.73;;;;;;;6.72;94.47;102443.09;6336528;28;20249;-75
2021/11/13 09:57:32;;;;;;;1.60;1.60;;;;;;;6.74;94.36;102446.50;6336733;28;20254;-75
2021/11/13 10:00:40;;;;;;;1.80;1.70;;;;;;;6.74;94.47;102443.78;6337102;28;20354;-73
2021/11/13 10:03:47;;;;;;;1.77;1.67;;;;;;;6.74;94.65;102436.50;6339655;28;20240;-74
2021/11/13 10:06:56;;;;;;;1.60;1.60;;;;;;;6.78;94.56;102447.88;6341064;28;20190;-75
2021/11/13 10:10:00;;;;;;;3.83;1.63;;;;;;;6.79;94.60;102450.47;6340814;28;20182;-75
2021/11/13 10:13:20;;;;;;;2.38;1.73;;;;;;;6.77;95.08;102435.34;6340723;28;20248;-74
2021/11/13 10:16:31;;;;;;;2.00;1.70;;;;;;;6.82;95.21;102452.03;6339428;28;20372;-74
2021/11/13 10:19:36;;;;;;;1.90;1.80;;;;;;;6.84;95.91;102447.28;6340522;28;20190;-74
2021/11/13 10:22:44;;;;;;;1.87;1.77;;;;;;;6.95;95.19;102444.34;6340390;28;20215;-74
2021/11/13 10:26:00;;;;;;;2.63;1.60;;;;;;;6.99;95.24;102451.16;6339490;28;20187;-74
2021/11/13 10:29:08;;;;;;;1.73;1.63;;;;;;;6.97;95.36;102458.63;6339419;28;20515;-74
2021/11/13 10:32:18;;;;;;;5.30;1.50;;;;;;;7.01;95.79;102456.47;6339295;28;20224;-75
2021/11/13 10:35:49;;;;;;;1.80;1.70;;;;;;;7.01;95.73;102470.84;6339235;28;20226;-74
2021/11/13 10:39:06;;;;;;;3.13;1.87;;;;;;;7.07;95.67;102462.09;6339386;28;20216;-74
2021/11/13 10:42:13;;;;;;;1.40;1.40;;;;;;;7.10;95.51;102453.66;6339036;28;20182;-74
2021/11/13 10:45:27;;;;;;;7.40;1.90;;;;;;;7.13;95.51;102453.34;6340280;28;20336;-74
2021/11/13 10:48:34;;;;;;;1.50;1.50;;;;;;;7.22;95.26;102452.41;6339849;28;20214;-74
2021/11/13 10:51:47;;;;;;;1.85;1.80;;;;;;;7.18;95.84;102445.59;6339644;28;20268;-74
2021/11/13 10:54:52;;;;;;;2.38;2.28;;;;;;;7.21;95.66;102450.72;6339517;28;20238;-75
2021/11/13 10:58:29;;;;;;;1.50;1.50;;;;;;;7.20;96.43;102457.16;6338467;28;20218;-74
2021/11/13 11:01:36;;;;;;;2.05;2.00;;;;;;;7.18;96.59;102451.03;6339602;28;20183;-74
2021/11/13 11:04:43;;;;;;;2.03;1.92;;;;;;;7.29;96.29;102442.63;6339525;28;20262;-74
2021/11/13 11:07:50;;;;;;;3.63;1.70;;;;;;;7.31;96.51;102443.34;6339787;28;20248;-74
2021/11/13 11:10:54;;;;;;;4.27;1.80;;;;;;;7.34;96.54;102445.75;6338077;28;20246;-74
2021/11/13 11:14:01;;;;;;;2.77;1.80;;;;;;;7.40;96.33;102445.09;6339229;28;20274;-75
2021/11/13 11:17:08;;;;;;;1.60;1.60;;;;;;;7.41;96.40;102446.81;6338618;28;20465;-74
2021/11/13 11:20:15;;;;;;;1.63;1.60;;;;;;;7.41;96.87;102446.81;6338587;28;20252;-75
2021/11/13 11:23:21;;;;;;;2.30;1.60;;;;;;;7.43;97.06;102439.34;6339190;28;20183;-74
2021/11/13 11:26:25;;;;;;;3.17;1.70;;;;;;;7.52;96.46;102437.56;6339212;28;20250;-74
2021/11/13 11:29:32;;;;;;;1.83;1.70;;;;;;;7.60;96.15;102444.91;6337929;28;20373;-74
2021/11/13 11:32:38;;;;;;;1.50;1.50;;;;;;;7.60;96.03;102444.91;6338705;28;20183;-74
2021/11/13 11:35:42;;;;;;;1.48;1.45;;;;;;;7.67;96.09;102435.13;6337448;28;20521;-74
2021/11/13 11:38:48;;;;;;;3.42;1.55;;;;;;;7.67;95.79;102445.97;6338739;28;20183;-74
2021/11/13 11:41:53;;;;;;;1.40;1.40;;;;;;;7.68;96.13;102434.13;6337418;28;20191;-74
2021/11/13 11:44:59;;;;;;;1.50;1.40;;;;;;;7.68;96.00;102431.41;6338899;28;20187;-74
2021/11/13 11:48:08;;;;;;;1.60;1.60;;;;;;;7.66;96.47;102438.81;6338855;28;20283;-74
2021/11/13 11:51:13;;;;;;;1.58;1.10;;;;;;;7.70;96.44;102440.25;6338581;28;20228;-74
2021/11/13 11:54:19;;;;;;;1.40;1.40;;;;;;;7.75;96.41;102454.19;6336881;28;20245;-74
2021/11/13 11:57:26;;;;;;;1.50;1.40;;;;;;;7.67;96.62;102443.25;6337804;28;20481;-73
2021/11/13 12:00:33;;;;;;;1.48;1.40;;;;;;;7.81;96.12;102453.53;6336891;28;20535;-73
2021/11/13 12:03:37;;;;;;;1.70;1.70;;;;;;;7.84;95.93;102464.09;6337957;28;20183;-74
2021/11/13 12:06:45;;;;;;;2.00;1.70;;;;;;;7.84;96.15;102466.81;6336826;28;20482;-74
2021/11/13 12:10:08;;;;;;;1.42;1.42;;;;;;;7.83;96.38;102471.38;6337974;28;20214;-73
2021/11/13 12:13:17;;;;;;;1.90;1.80;;;;;;;7.88;96.01;102462.78;6337562;28;20183;-74
2021/11/13 12:16:24;;;;;;;2.83;1.70;;;;;;;7.95;95.94;102467.41;6337021;28;20211;-73
2021/11/13 12:19:28;;;;;;;2.10;2.00;;;;;;;7.98;95.82;102466.22;6336844;28;20519;-73
2021/11/13 12:22:37;;;;;;;2.20;1.90;;;;;;;8.01;95.58;102472.19;6336220;28;20472;-73
2021/11/13 12:25:57;;;;;;;3.33;1.75;;;;;;;7.98;95.73;102468.94;6338222;28;20256;-72
2021/11/13 12:29:05;;;;;;;1.85;1.85;;;;;;;8.01;95.94;102474.06;6337940;28;20336;-72
2021/11/13 12:32:15;;;;;;;2.05;1.95;;;;;;;8.13;95.14;102475.50;6337576;28;20228;-73
2021/11/13 12:35:19;;;;;;;2.28;2.08;;;;;;;8.15;94.74;102468.88;6337434;28;20297;-74
2021/11/13 12:38:35;;;;;;;2.55;2.45;;;;;;;8.20;94.67;102473.81;6336429;28;20191;-74
2021/11/13 12:41:50;;;;;;;2.40;2.30;;;;;;;8.24;94.39;102483.38;6337466;28;20183;-74
2021/11/13 12:44:56;;;;;;;2.45;2.22;;;;;;;8.24;94.31;102477.94;6337316;28;20457;-73
2021/11/13 12:48:08;;;;;;;1.85;1.80;;;;;;;8.34;93.49;102484.13;6337299;28;20286;-73
2021/11/13 12:51:18;;;;;;;5.65;1.70;;;;;;;8.35;93.65;102491.25;6336959;28;20281;-73
2021/11/13 12:54:25;;;;;;;2.00;1.90;;;;;;;8.43;92.86;102483.16;6337439;28;20182;-73
2021/11/13 12:57:35;;;;;;;4.78;2.10;;;;;;;8.31;94.10;102483.59;6336189;28;20418;-73
2021/11/13 13:00:43;;;;;;;2.47;2.08;;;;;;;8.42;93.42;102492.34;6337401;28;20189;-73
2021/11/13 13:03:47;;;;;;;2.38;1.77;;;;;;;8.38;93.87;102485.50;6337204;28;20183;-73
2021/11/13 13:06:53;;;;;;;2.97;2.25;;;;;;;8.27;94.97;102488.50;6337123;28;20187;-74
2021/11/13 13:10:01;;;;;;;1.80;1.80;;;;;;;8.17;95.55;102482.28;6337302;28;20456;-74
2021/11/13 13:13:12;;;;;;;3.35;2.03;;;;;;;8.26;94.98;102503.09;6336038;28;20488;-73
2021/11/13 13:16:16;;;;;;;2.30;2.20;;;;;;;8.24;95.26;102505.13;6337276;28;20244;-73
2021/11/13 13:19:26;;;;;;;1.90;1.90;;;;;;;8.23;95.11;102495.25;6335945;28;20194;-74
2021/11/13 13:22:30;;;;;;;2.13;2.13;;;;;;;8.28;94.83;102501.09;6337212;28;20190;-74
2021/11/13 13:25:36;;;;;;;1.95;1.88;;;;;;;8.27;95.12;102491.22;6335934;28;20489;-74
2021/11/13 13:28:43;;;;;;;2.72;2.50;;;;;;;8.23;94.97;102500.69;6337032;28;20183;-73
2021/11/13 13:31:59;;;;;;;1.60;1.50;;;;;;;8.19;95.25;102502.88;6337077;28;20244;-73
2021/11/13 13:35:06;;;;;;;3.40;3.20;;;;;;;8.10;96.23;102503.00;6336434;28;20412;-73
2021/11/13 13:38:13;;;;;;;2.08;2.00;;;;;;;8.18;95.67;102498.47;6315325;28;20184;-73
2021/11/13 13:41:19;;;;;;;1.83;1.77;;;;;;;8.13;95.81;102508.13;6315169;28;20205;-74
2021/11/13 13:44:24;;;;;;;2.33;1.80;;;;;;;8.14;95.53;102498.94;6314994;28;20475;-73
2021/11/13 13:47:29;;;;;;;2.13;2.03;;;;;;;8.13;95.71;102508.13;6316368;28;20187;-73
2021/11/13 13:50:35;;;;;;;3.03;1.85;;;;;;;8.12;96.11;102511.84;6315071;28;20183;-73
2021/11/13 13:53:45;;;;;;;1.98;1.98;;;;;;;8.20;95.51;102506.44;6315201;28;20486;-74
2021/11/13 13:56:52;;;;;;;1.85;1.85;;;;;;;8.24;94.98;102509.72;6314893;28;20240;-74
2021/11/13 14:00:00;;;;;;;2.20;2.10;;;;;;;8.30;94.65;102503.63;6315561;28;20259;-73
2021/11/13 14:03:27;;;;;;;2.95;2.85;;;;;;;8.27;94.74;102491.22;6315907;28;20356;-73
2021/11/13 14:06:31;;;;;;;2.42;2.25;;;;;;;8.19;95.43;102502.03;6315833;28;20191;-74
2021/11/13 14:09:35;;;;;;;4.18;2.08;;;;;;;8.20;95.23;102501.00;6314568;28;20389;-74
2021/11/13 14:12:41;;;;;;;2.10;2.00;;;;;;;8.09;95.63;102504.00;6315772;28;20184;-74
2021/11/13 14:15:54;;;;;;;2.17;2.17;;;;;;;8.20;95.39;102498.28;6314613;28;20493;-74
2021/11/13 14:19:18;;;;;;;2.10;2.00;;;;;;;8.13;95.64;102491.81;6315569;28;20229;-73
2021/11/13 14:22:22;;;;;;;5.38;2.30;;;;;;;8.09;96.11;102479.53;6314687;28;20438;-74
2021/11/13 14:25:27;;;;;;;2.50;2.00;;;;;;;8.19;95.40;102492.00;6315285;28;20183;-74
2021/11/13 14:28:39;;;;;;;2.20;1.98;;;;;;;8.09;95.70;102490.41;6314232;28;20420;-74
2021/11/13 14:31:49;;;;;;;1.70;1.70;;;;;;;8.00;96.38;102480.50;6314178;28;20505;-74
2021/11/13 14:34:53;;;;;;;1.95;1.70;;;;;;;8.03;96.54;102477.47;6313939;28;20441;-73
2021/11/13 14:37:57;;;;;;;2.03;1.80;;;;;;;8.08;96.21;102478.69;6337519;28;20423;-74